Weather at Marathon Wasser Airport [CLOSED]

Public forecast

Using degrees Celsius for public forecast. Weather courtesy of forecast.io.

Closest aviation weather report (METAR) to Marathon Wasser Airport

Closest report is Eleftherios Venizelos International Airport, 12.9 nm (23.8 km) SSW. Retrieved 2021/05/16 21:20 UTC (19 minutes ago):

LGAV 162120Z VRB01KT CAVOK 14/11 Q1011 NOSIG

Closest aviation forecast (TAF) to Marathon Wasser Airport

Closest forecast is Eleftherios Venizelos International Airport, 12.9 nm (23.8 km) SSW. Retrieved 2021/05/16 18:12 UTC (3 hours ago):

TAF TAF LGAV 161700Z 1618/1718 28010KT 9999 FEW025 BECMG 1700/1702 VRB05KT BECMG 1710/1712 22012KT